sensor_id;sensor_type;location;lat;lon;timestamp;P1;durP1;ratioP1;P2;durP2;ratioP2
71763;SDS011;59602;52.142;5.408;2023-05-10T02:40:20;43.10;;;14.75;;
71763;SDS011;59602;52.142;5.408;2023-05-10T03:44:35;47.92;;;15.15;;
71763;SDS011;59602;52.142;5.408;2023-05-10T03:55:44;57.97;;;16.83;;
71763;SDS011;59602;52.142;5.408;2023-05-10T04:19:07;51.67;;;16.42;;
71763;SDS011;59602;52.142;5.408;2023-05-10T04:21:53;54.63;;;15.85;;
71763;SDS011;59602;52.142;5.408;2023-05-10T04:48:23;50.97;;;15.65;;
71763;SDS011;59602;52.142;5.408;2023-05-10T05:02:20;53.50;;;15.67;;
71763;SDS011;59602;52.142;5.408;2023-05-10T05:21:14;55.78;;;17.38;;
71763;SDS011;59602;52.142;5.408;2023-05-10T05:28:41;50.58;;;16.25;;
71763;SDS011;59602;52.142;5.408;2023-05-10T05:31:10;50.90;;;16.90;;
71763;SDS011;59602;52.142;5.408;2023-05-10T05:33:59;52.37;;;16.73;;
71763;SDS011;59602;52.142;5.408;2023-05-10T05:37:21;49.88;;;16.30;;
71763;SDS011;59602;52.142;5.408;2023-05-10T05:39:53;49.72;;;16.33;;
71763;SDS011;59602;52.142;5.408;2023-05-10T05:45:47;50.75;;;16.73;;
71763;SDS011;59602;52.142;5.408;2023-05-10T05:48:44;45.27;;;15.53;;
71763;SDS011;59602;52.142;5.408;2023-05-10T05:51:42;45.97;;;15.98;;
71763;SDS011;59602;52.142;5.408;2023-05-10T05:54:25;46.92;;;15.38;;
71763;SDS011;59602;52.142;5.408;2023-05-10T05:56:54;45.17;;;15.25;;
71763;SDS011;59602;52.142;5.408;2023-05-10T05:59:37;49.40;;;16.20;;
71763;SDS011;59602;52.142;5.408;2023-05-10T06:02:15;41.40;;;15.63;;
71763;SDS011;59602;52.142;5.408;2023-05-10T06:04:58;41.42;;;14.05;;
71763;SDS011;59602;52.142;5.408;2023-05-10T06:07:25;34.22;;;14.20;;
71763;SDS011;59602;52.142;5.408;2023-05-10T06:10:12;35.67;;;13.50;;
71763;SDS011;59602;52.142;5.408;2023-05-10T06:12:43;34.00;;;13.32;;
71763;SDS011;59602;52.142;5.408;2023-05-10T06:15:12;37.03;;;14.20;;
71763;SDS011;59602;52.142;5.408;2023-05-10T06:17:41;39.25;;;14.05;;
71763;SDS011;59602;52.142;5.408;2023-05-10T06:20:13;39.58;;;15.15;;
71763;SDS011;59602;52.142;5.408;2023-05-10T06:23:03;40.30;;;14.55;;
71763;SDS011;59602;52.142;5.408;2023-05-10T06:25:30;38.00;;;14.80;;
71763;SDS011;59602;52.142;5.408;2023-05-10T06:27:56;39.97;;;14.17;;
71763;SDS011;59602;52.142;5.408;2023-05-10T06:30:24;38.03;;;14.50;;
71763;SDS011;59602;52.142;5.408;2023-05-10T06:32:55;36.50;;;13.07;;
71763;SDS011;59602;52.142;5.408;2023-05-10T06:35:22;34.50;;;13.00;;
71763;SDS011;59602;52.142;5.408;2023-05-10T06:37:50;31.00;;;12.10;;
71763;SDS011;59602;52.142;5.408;2023-05-10T06:40:17;34.23;;;12.30;;
71763;SDS011;59602;52.142;5.408;2023-05-10T06:42:45;30.83;;;12.48;;
71763;SDS011;59602;52.142;5.408;2023-05-10T06:45:13;34.55;;;11.77;;
71763;SDS011;59602;52.142;5.408;2023-05-10T06:47:41;30.40;;;11.20;;
71763;SDS011;59602;52.142;5.408;2023-05-10T06:50:08;29.13;;;10.40;;
71763;SDS011;59602;52.142;5.408;2023-05-10T06:52:35;23.70;;;9.23;;
71763;SDS011;59602;52.142;5.408;2023-05-10T06:55:03;22.80;;;9.05;;
71763;SDS011;59602;52.142;5.408;2023-05-10T06:57:30;21.88;;;8.93;;
71763;SDS011;59602;52.142;5.408;2023-05-10T06:59:58;23.23;;;8.35;;
71763;SDS011;59602;52.142;5.408;2023-05-10T07:02:25;22.35;;;8.45;;
71763;SDS011;59602;52.142;5.408;2023-05-10T07:04:51;18.57;;;7.77;;
71763;SDS011;59602;52.142;5.408;2023-05-10T07:07:18;22.17;;;6.93;;
71763;SDS011;59602;52.142;5.408;2023-05-10T07:12:13;18.77;;;7.03;;
71763;SDS011;59602;52.142;5.408;2023-05-10T07:14:56;16.02;;;6.53;;
71763;SDS011;59602;52.142;5.408;2023-05-10T07:17:43;19.13;;;6.13;;
71763;SDS011;59602;52.142;5.408;2023-05-10T07:20:12;14.63;;;6.20;;
71763;SDS011;59602;52.142;5.408;2023-05-10T07:22:40;16.45;;;7.20;;
71763;SDS011;59602;52.142;5.408;2023-05-10T07:25:06;19.30;;;6.22;;
71763;SDS011;59602;52.142;5.408;2023-05-10T07:27:33;18.27;;;6.40;;
71763;SDS011;59602;52.142;5.408;2023-05-10T07:30:00;16.93;;;6.07;;
71763;SDS011;59602;52.142;5.408;2023-05-10T07:32:28;15.80;;;5.60;;
71763;SDS011;59602;52.142;5.408;2023-05-10T07:34:55;15.40;;;5.63;;
71763;SDS011;59602;52.142;5.408;2023-05-10T07:37:22;13.98;;;5.95;;
71763;SDS011;59602;52.142;5.408;2023-05-10T07:39:48;18.95;;;5.63;;
71763;SDS011;59602;52.142;5.408;2023-05-10T07:42:31;13.97;;;5.43;;
71763;SDS011;59602;52.142;5.408;2023-05-10T07:45:01;15.80;;;6.53;;
71763;SDS011;59602;52.142;5.408;2023-05-10T07:47:30;16.25;;;6.50;;
71763;SDS011;59602;52.142;5.408;2023-05-10T07:49:57;18.48;;;6.55;;
71763;SDS011;59602;52.142;5.408;2023-05-10T07:52:58;14.15;;;6.07;;
71763;SDS011;59602;52.142;5.408;2023-05-10T07:55:27;15.63;;;6.37;;
71763;SDS011;59602;52.142;5.408;2023-05-10T07:57:53;15.52;;;6.00;;
71763;SDS011;59602;52.142;5.408;2023-05-10T08:00:22;14.65;;;5.97;;
71763;SDS011;59602;52.142;5.408;2023-05-10T08:03:12;13.98;;;5.85;;
71763;SDS011;59602;52.142;5.408;2023-05-10T08:05:43;15.30;;;6.15;;
71763;SDS011;59602;52.142;5.408;2023-05-10T08:08:13;12.23;;;5.27;;
71763;SDS011;59602;52.142;5.408;2023-05-10T08:10:43;11.52;;;5.35;;
71763;SDS011;59602;52.142;5.408;2023-05-10T08:13:10;14.63;;;5.07;;
71763;SDS011;59602;52.142;5.408;2023-05-10T08:15:40;12.20;;;5.72;;
71763;SDS011;59602;52.142;5.408;2023-05-10T08:18:07;12.48;;;5.72;;
71763;SDS011;59602;52.142;5.408;2023-05-10T08:20:33;14.07;;;6.17;;
71763;SDS011;59602;52.142;5.408;2023-05-10T08:23:03;12.40;;;5.82;;
71763;SDS011;59602;52.142;5.408;2023-05-10T08:29:37;14.70;;;5.78;;
71763;SDS011;59602;52.142;5.408;2023-05-10T08:32:15;15.02;;;6.60;;
71763;SDS011;59602;52.142;5.408;2023-05-10T08:35:05;14.63;;;6.57;;
71763;SDS011;59602;52.142;5.408;2023-05-10T08:37:32;13.98;;;6.45;;
71763;SDS011;59602;52.142;5.408;2023-05-10T08:39:59;14.75;;;6.65;;
71763;SDS011;59602;52.142;5.408;2023-05-10T08:42:26;14.50;;;5.93;;
71763;SDS011;59602;52.142;5.408;2023-05-10T08:44:56;13.75;;;6.10;;
71763;SDS011;59602;52.142;5.408;2023-05-10T08:47:24;13.90;;;7.17;;
71763;SDS011;59602;52.142;5.408;2023-05-10T08:49:51;11.82;;;5.38;;
71763;SDS011;59602;52.142;5.408;2023-05-10T08:52:18;14.23;;;7.13;;
71763;SDS011;59602;52.142;5.408;2023-05-10T08:54:46;14.32;;;6.80;;
71763;SDS011;59602;52.142;5.408;2023-05-10T08:57:13;16.75;;;6.88;;
71763;SDS011;59602;52.142;5.408;2023-05-10T08:59:39;15.10;;;6.17;;
71763;SDS011;59602;52.142;5.408;2023-05-10T09:02:06;15.50;;;6.97;;
71763;SDS011;59602;52.142;5.408;2023-05-10T09:04:38;13.25;;;5.78;;
71763;SDS011;59602;52.142;5.408;2023-05-10T09:07:06;11.05;;;5.85;;
71763;SDS011;59602;52.142;5.408;2023-05-10T09:09:33;11.80;;;6.30;;
71763;SDS011;59602;52.142;5.408;2023-05-10T09:12:01;11.60;;;5.70;;
71763;SDS011;59602;52.142;5.408;2023-05-10T09:14:27;12.75;;;5.63;;
71763;SDS011;59602;52.142;5.408;2023-05-10T09:16:55;17.58;;;8.85;;
71763;SDS011;59602;52.142;5.408;2023-05-10T09:19:22;13.80;;;6.22;;
71763;SDS011;59602;52.142;5.408;2023-05-10T09:21:49;20.65;;;8.43;;
71763;SDS011;59602;52.142;5.408;2023-05-10T09:24:15;23.67;;;9.13;;
71763;SDS011;59602;52.142;5.408;2023-05-10T09:26:46;8.77;;;3.67;;
71763;SDS011;59602;52.142;5.408;2023-05-10T09:29:14;8.85;;;3.38;;
71763;SDS011;59602;52.142;5.408;2023-05-10T09:34:17;5.18;;;2.47;;
71763;SDS011;59602;52.142;5.408;2023-05-10T09:36:50;7.30;;;2.30;;
71763;SDS011;59602;52.142;5.408;2023-05-10T09:39:18;6.68;;;2.38;;
71763;SDS011;59602;52.142;5.408;2023-05-10T09:41:45;5.47;;;2.17;;
71763;SDS011;59602;52.142;5.408;2023-05-10T09:44:16;5.95;;;2.42;;
71763;SDS011;59602;52.142;5.408;2023-05-10T09:46:48;5.25;;;1.85;;
71763;SDS011;59602;52.142;5.408;2023-05-10T09:49:15;7.53;;;2.00;;
71763;SDS011;59602;52.142;5.408;2023-05-10T09:51:42;5.45;;;2.00;;
71763;SDS011;59602;52.142;5.408;2023-05-10T09:54:09;6.20;;;2.90;;
71763;SDS011;59602;52.142;5.408;2023-05-10T09:56:37;6.18;;;2.67;;
71763;SDS011;59602;52.142;5.408;2023-05-10T09:59:07;6.05;;;2.80;;
71763;SDS011;59602;52.142;5.408;2023-05-10T10:01:36;7.83;;;3.27;;
71763;SDS011;59602;52.142;5.408;2023-05-10T10:04:04;6.90;;;3.58;;
71763;SDS011;59602;52.142;5.408;2023-05-10T10:06:36;5.55;;;2.92;;
71763;SDS011;59602;52.142;5.408;2023-05-10T10:09:03;8.52;;;3.10;;
71763;SDS011;59602;52.142;5.408;2023-05-10T10:11:31;7.63;;;2.95;;
71763;SDS011;59602;52.142;5.408;2023-05-10T10:13:59;8.30;;;3.10;;
71763;SDS011;59602;52.142;5.408;2023-05-10T10:16:26;6.28;;;2.85;;
71763;SDS011;59602;52.142;5.408;2023-05-10T10:18:55;7.10;;;2.97;;
71763;SDS011;59602;52.142;5.408;2023-05-10T10:21:22;7.53;;;3.40;;
71763;SDS011;59602;52.142;5.408;2023-05-10T10:23:50;7.20;;;3.17;;
71763;SDS011;59602;52.142;5.408;2023-05-10T10:26:19;7.27;;;3.03;;
71763;SDS011;59602;52.142;5.408;2023-05-10T10:28:49;9.10;;;3.20;;
71763;SDS011;59602;52.142;5.408;2023-05-10T10:31:27;7.45;;;3.55;;
71763;SDS011;59602;52.142;5.408;2023-05-10T10:36:39;7.30;;;3.40;;
71763;SDS011;59602;52.142;5.408;2023-05-10T10:39:13;7.33;;;3.17;;
71763;SDS011;59602;52.142;5.408;2023-05-10T10:41:49;9.23;;;3.50;;
71763;SDS011;59602;52.142;5.408;2023-05-10T10:52:24;6.47;;;3.27;;
71763;SDS011;59602;52.142;5.408;2023-05-10T10:57:32;6.13;;;3.15;;
71763;SDS011;59602;52.142;5.408;2023-05-10T11:02:50;6.75;;;3.13;;
71763;SDS011;59602;52.142;5.408;2023-05-10T11:05:25;6.93;;;3.47;;
71763;SDS011;59602;52.142;5.408;2023-05-10T11:07:59;7.00;;;2.83;;
71763;SDS011;59602;52.142;5.408;2023-05-10T11:10:32;8.15;;;3.33;;
71763;SDS011;59602;52.142;5.408;2023-05-10T11:13:01;7.22;;;2.75;;
71763;SDS011;59602;52.142;5.408;2023-05-10T11:15:29;6.93;;;3.42;;
71763;SDS011;59602;52.142;5.408;2023-05-10T11:17:57;7.60;;;3.20;;
71763;SDS011;59602;52.142;5.408;2023-05-10T11:20:23;8.48;;;2.67;;
71763;SDS011;59602;52.142;5.408;2023-05-10T11:23:10;7.82;;;3.13;;
71763;SDS011;59602;52.142;5.408;2023-05-10T11:25:45;7.05;;;3.20;;
71763;SDS011;59602;52.142;5.408;2023-05-10T11:28:12;7.30;;;3.40;;
71763;SDS011;59602;52.142;5.408;2023-05-10T11:30:39;8.27;;;3.13;;
71763;SDS011;59602;52.142;5.408;2023-05-10T11:33:07;7.00;;;2.65;;
71763;SDS011;59602;52.142;5.408;2023-05-10T11:35:38;7.57;;;2.67;;
71763;SDS011;59602;52.142;5.408;2023-05-10T11:38:09;7.45;;;2.90;;
71763;SDS011;59602;52.142;5.408;2023-05-10T11:40:37;7.85;;;2.67;;
71763;SDS011;59602;52.142;5.408;2023-05-10T11:43:05;5.43;;;2.63;;
71763;SDS011;59602;52.142;5.408;2023-05-10T11:45:32;6.82;;;2.30;;
71763;SDS011;59602;52.142;5.408;2023-05-10T11:47:59;5.65;;;2.10;;
71763;SDS011;59602;52.142;5.408;2023-05-10T11:50:27;6.75;;;2.63;;
71763;SDS011;59602;52.142;5.408;2023-05-10T11:52:54;6.70;;;2.20;;
71763;SDS011;59602;52.142;5.408;2023-05-10T11:55:22;5.93;;;2.00;;
71763;SDS011;59602;52.142;5.408;2023-05-10T11:57:51;6.40;;;2.22;;
71763;SDS011;59602;52.142;5.408;2023-05-10T12:00:19;4.47;;;1.80;;
71763;SDS011;59602;52.142;5.408;2023-05-10T12:02:46;5.38;;;1.88;;
71763;SDS011;59602;52.142;5.408;2023-05-10T12:05:14;5.78;;;1.90;;
71763;SDS011;59602;52.142;5.408;2023-05-10T12:07:41;4.43;;;1.70;;
71763;SDS011;59602;52.142;5.408;2023-05-10T12:10:13;5.00;;;1.98;;
71763;SDS011;59602;52.142;5.408;2023-05-10T12:12:42;6.07;;;1.67;;
71763;SDS011;59602;52.142;5.408;2023-05-10T12:15:11;2.95;;;1.33;;
71763;SDS011;59602;52.142;5.408;2023-05-10T12:17:44;5.35;;;1.58;;
71763;SDS011;59602;52.142;5.408;2023-05-10T12:22:47;4.00;;;1.70;;
71763;SDS011;59602;52.142;5.408;2023-05-10T12:25:21;3.75;;;1.67;;
71763;SDS011;59602;52.142;5.408;2023-05-10T12:27:50;5.53;;;1.95;;
71763;SDS011;59602;52.142;5.408;2023-05-10T12:30:20;5.35;;;2.05;;
71763;SDS011;59602;52.142;5.408;2023-05-10T12:32:59;5.10;;;1.80;;
71763;SDS011;59602;52.142;5.408;2023-05-10T12:35:30;4.38;;;2.05;;
71763;SDS011;59602;52.142;5.408;2023-05-10T12:37:57;4.00;;;1.75;;
71763;SDS011;59602;52.142;5.408;2023-05-10T12:40:24;4.00;;;1.50;;
71763;SDS011;59602;52.142;5.408;2023-05-10T12:42:51;5.00;;;1.35;;
71763;SDS011;59602;52.142;5.408;2023-05-10T12:45:18;4.27;;;1.13;;
71763;SDS011;59602;52.142;5.408;2023-05-10T12:47:44;3.65;;;1.33;;
71763;SDS011;59602;52.142;5.408;2023-05-10T12:50:11;4.05;;;1.52;;
71763;SDS011;59602;52.142;5.408;2023-05-10T12:52:38;4.07;;;1.40;;
71763;SDS011;59602;52.142;5.408;2023-05-10T12:55:04;3.47;;;1.30;;
71763;SDS011;59602;52.142;5.408;2023-05-10T12:57:31;4.17;;;1.37;;
71763;SDS011;59602;52.142;5.408;2023-05-10T12:59:57;3.67;;;1.40;;
71763;SDS011;59602;52.142;5.408;2023-05-10T13:02:24;2.40;;;1.00;;
71763;SDS011;59602;52.142;5.408;2023-05-10T13:04:51;3.28;;;1.10;;
71763;SDS011;59602;52.142;5.408;2023-05-10T13:07:18;4.00;;;1.27;;
71763;SDS011;59602;52.142;5.408;2023-05-10T13:09:44;3.20;;;1.20;;
71763;SDS011;59602;52.142;5.408;2023-05-10T13:12:11;4.00;;;1.27;;
71763;SDS011;59602;52.142;5.408;2023-05-10T13:14:38;3.38;;;1.40;;
71763;SDS011;59602;52.142;5.408;2023-05-10T13:17:06;2.88;;;1.00;;
71763;SDS011;59602;52.142;5.408;2023-05-10T13:19:33;3.00;;;1.35;;
71763;SDS011;59602;52.142;5.408;2023-05-10T13:22:00;2.30;;;0.83;;
71763;SDS011;59602;52.142;5.408;2023-05-10T13:24:27;5.28;;;1.92;;
71763;SDS011;59602;52.142;5.408;2023-05-10T13:26:54;4.25;;;1.90;;
71763;SDS011;59602;52.142;5.408;2023-05-10T13:29:22;6.60;;;2.88;;
71763;SDS011;59602;52.142;5.408;2023-05-10T13:31:48;7.72;;;3.55;;
71763;SDS011;59602;52.142;5.408;2023-05-10T13:34:15;8.70;;;3.43;;
71763;SDS011;59602;52.142;5.408;2023-05-10T13:36:42;10.05;;;3.53;;
71763;SDS011;59602;52.142;5.408;2023-05-10T13:39:09;9.73;;;3.03;;
71763;SDS011;59602;52.142;5.408;2023-05-10T13:41:35;8.60;;;3.47;;
71763;SDS011;59602;52.142;5.408;2023-05-10T13:44:02;7.82;;;3.20;;
71763;SDS011;59602;52.142;5.408;2023-05-10T13:46:29;6.97;;;2.43;;
71763;SDS011;59602;52.142;5.408;2023-05-10T13:48:57;8.85;;;3.35;;
71763;SDS011;59602;52.142;5.408;2023-05-10T13:51:33;7.80;;;3.70;;
71763;SDS011;59602;52.142;5.408;2023-05-10T13:54:00;8.15;;;3.72;;
71763;SDS011;59602;52.142;5.408;2023-05-10T13:56:27;9.82;;;3.20;;
71763;SDS011;59602;52.142;5.408;2023-05-10T13:58:53;6.90;;;3.10;;
71763;SDS011;59602;52.142;5.408;2023-05-10T14:01:20;9.30;;;3.40;;
71763;SDS011;59602;52.142;5.408;2023-05-10T14:03:47;7.65;;;3.08;;
71763;SDS011;59602;52.142;5.408;2023-05-10T14:06:14;8.57;;;3.10;;
71763;SDS011;59602;52.142;5.408;2023-05-10T14:08:41;7.70;;;3.08;;
71763;SDS011;59602;52.142;5.408;2023-05-10T14:11:08;9.33;;;3.27;;
71763;SDS011;59602;52.142;5.408;2023-05-10T14:13:34;9.73;;;3.90;;
71763;SDS011;59602;52.142;5.408;2023-05-10T14:16:01;9.30;;;3.25;;
71763;SDS011;59602;52.142;5.408;2023-05-10T14:18:29;11.40;;;3.75;;
71763;SDS011;59602;52.142;5.408;2023-05-10T14:20:56;9.05;;;3.08;;
71763;SDS011;59602;52.142;5.408;2023-05-10T14:23:23;9.80;;;3.47;;
71763;SDS011;59602;52.142;5.408;2023-05-10T14:25:51;9.48;;;3.55;;
71763;SDS011;59602;52.142;5.408;2023-05-10T14:28:18;7.53;;;3.40;;
71763;SDS011;59602;52.142;5.408;2023-05-10T14:30:46;6.68;;;3.22;;
71763;SDS011;59602;52.142;5.408;2023-05-10T14:33:13;7.72;;;3.30;;
71763;SDS011;59602;52.142;5.408;2023-05-10T14:35:40;8.80;;;3.73;;
71763;SDS011;59602;52.142;5.408;2023-05-10T14:38:07;8.30;;;3.05;;
71763;SDS011;59602;52.142;5.408;2023-05-10T14:40:33;7.78;;;3.22;;
71763;SDS011;59602;52.142;5.408;2023-05-10T14:43:00;8.07;;;3.30;;
71763;SDS011;59602;52.142;5.408;2023-05-10T14:45:27;9.63;;;3.90;;
71763;SDS011;59602;52.142;5.408;2023-05-10T14:47:54;9.90;;;3.57;;
71763;SDS011;59602;52.142;5.408;2023-05-10T14:50:22;10.80;;;3.97;;
71763;SDS011;59602;52.142;5.408;2023-05-10T14:53:02;9.88;;;4.10;;
71763;SDS011;59602;52.142;5.408;2023-05-10T14:55:29;9.63;;;4.05;;
71763;SDS011;59602;52.142;5.408;2023-05-10T14:57:56;11.27;;;4.18;;
71763;SDS011;59602;52.142;5.408;2023-05-10T15:00:23;9.33;;;3.97;;
71763;SDS011;59602;52.142;5.408;2023-05-10T15:02:50;9.95;;;4.10;;
71763;SDS011;59602;52.142;5.408;2023-05-10T15:05:17;8.98;;;3.65;;
71763;SDS011;59602;52.142;5.408;2023-05-10T15:07:44;8.88;;;3.47;;
71763;SDS011;59602;52.142;5.408;2023-05-10T15:10:11;10.98;;;4.13;;
71763;SDS011;59602;52.142;5.408;2023-05-10T15:12:38;9.53;;;3.50;;
71763;SDS011;59602;52.142;5.408;2023-05-10T15:15:05;9.68;;;3.78;;
71763;SDS011;59602;52.142;5.408;2023-05-10T15:17:32;12.68;;;4.40;;
71763;SDS011;59602;52.142;5.408;2023-05-10T15:20:00;8.20;;;3.70;;
71763;SDS011;59602;52.142;5.408;2023-05-10T15:22:29;11.95;;;4.13;;
71763;SDS011;59602;52.142;5.408;2023-05-10T15:24:59;11.17;;;4.23;;
71763;SDS011;59602;52.142;5.408;2023-05-10T15:27:26;9.68;;;4.30;;
71763;SDS011;59602;52.142;5.408;2023-05-10T15:29:52;9.00;;;3.80;;
71763;SDS011;59602;52.142;5.408;2023-05-10T15:32:19;8.48;;;3.90;;
71763;SDS011;59602;52.142;5.408;2023-05-10T15:34:47;10.32;;;4.00;;
71763;SDS011;59602;52.142;5.408;2023-05-10T15:37:14;7.93;;;3.40;;
71763;SDS011;59602;52.142;5.408;2023-05-10T15:39:41;9.30;;;4.03;;
71763;SDS011;59602;52.142;5.408;2023-05-10T15:42:07;9.73;;;3.92;;
71763;SDS011;59602;52.142;5.408;2023-05-10T15:44:34;8.48;;;3.63;;
71763;SDS011;59602;52.142;5.408;2023-05-10T15:47:01;10.63;;;4.20;;
71763;SDS011;59602;52.142;5.408;2023-05-10T15:49:29;7.73;;;3.77;;
71763;SDS011;59602;52.142;5.408;2023-05-10T15:51:55;6.68;;;2.85;;
71763;SDS011;59602;52.142;5.408;2023-05-10T15:54:22;7.13;;;2.90;;
71763;SDS011;59602;52.142;5.408;2023-05-10T15:56:48;6.90;;;3.20;;
71763;SDS011;59602;52.142;5.408;2023-05-10T15:59:15;7.20;;;3.28;;
71763;SDS011;59602;52.142;5.408;2023-05-10T16:01:41;7.43;;;3.40;;
71763;SDS011;59602;52.142;5.408;2023-05-10T16:04:09;7.78;;;2.90;;
71763;SDS011;59602;52.142;5.408;2023-05-10T16:06:36;8.15;;;3.70;;
71763;SDS011;59602;52.142;5.408;2023-05-10T16:09:03;7.63;;;3.42;;
71763;SDS011;59602;52.142;5.408;2023-05-10T16:11:29;8.93;;;3.28;;
71763;SDS011;59602;52.142;5.408;2023-05-10T16:13:56;7.27;;;3.37;;
71763;SDS011;59602;52.142;5.408;2023-05-10T16:16:23;7.93;;;3.28;;
71763;SDS011;59602;52.142;5.408;2023-05-10T16:18:50;7.30;;;3.22;;
71763;SDS011;59602;52.142;5.408;2023-05-10T16:21:17;8.63;;;3.67;;
71763;SDS011;59602;52.142;5.408;2023-05-10T16:23:44;6.82;;;3.05;;
71763;SDS011;59602;52.142;5.408;2023-05-10T16:26:11;7.93;;;3.30;;
71763;SDS011;59602;52.142;5.408;2023-05-10T16:28:38;8.05;;;3.20;;
71763;SDS011;59602;52.142;5.408;2023-05-10T16:31:07;8.32;;;3.80;;
71763;SDS011;59602;52.142;5.408;2023-05-10T16:33:33;9.45;;;3.42;;
71763;SDS011;59602;52.142;5.408;2023-05-10T16:36:00;8.38;;;3.30;;
71763;SDS011;59602;52.142;5.408;2023-05-10T16:38:26;7.93;;;3.70;;
71763;SDS011;59602;52.142;5.408;2023-05-10T16:40:53;9.85;;;3.50;;
71763;SDS011;59602;52.142;5.408;2023-05-10T16:43:21;8.98;;;3.50;;
71763;SDS011;59602;52.142;5.408;2023-05-10T16:45:51;7.50;;;3.40;;
71763;SDS011;59602;52.142;5.408;2023-05-10T16:48:17;8.60;;;3.42;;
71763;SDS011;59602;52.142;5.408;2023-05-10T16:50:44;7.33;;;3.47;;
71763;SDS011;59602;52.142;5.408;2023-05-10T16:53:11;6.38;;;2.72;;
71763;SDS011;59602;52.142;5.408;2023-05-10T16:55:37;5.45;;;2.50;;
71763;SDS011;59602;52.142;5.408;2023-05-10T16:58:04;5.05;;;2.60;;
71763;SDS011;59602;52.142;5.408;2023-05-10T17:00:31;6.10;;;2.22;;
71763;SDS011;59602;52.142;5.408;2023-05-10T17:02:57;7.30;;;2.73;;
71763;SDS011;59602;52.142;5.408;2023-05-10T17:05:24;6.13;;;2.58;;
71763;SDS011;59602;52.142;5.408;2023-05-10T17:07:51;5.50;;;2.20;;
71763;SDS011;59602;52.142;5.408;2023-05-10T17:10:18;4.85;;;1.92;;
71763;SDS011;59602;52.142;5.408;2023-05-10T17:12:44;4.35;;;2.13;;
71763;SDS011;59602;52.142;5.408;2023-05-10T17:15:11;5.87;;;2.03;;
71763;SDS011;59602;52.142;5.408;2023-05-10T17:17:38;4.63;;;1.98;;
71763;SDS011;59602;52.142;5.408;2023-05-10T17:20:05;6.18;;;2.25;;
71763;SDS011;59602;52.142;5.408;2023-05-10T17:22:32;5.45;;;2.00;;
71763;SDS011;59602;52.142;5.408;2023-05-10T17:35:43;4.13;;;1.80;;
71763;SDS011;59602;52.142;5.408;2023-05-10T17:39:01;4.03;;;1.98;;
71763;SDS011;59602;52.142;5.408;2023-05-10T17:41:30;5.13;;;2.20;;
71763;SDS011;59602;52.142;5.408;2023-05-10T17:46:57;5.38;;;2.05;;
71763;SDS011;59602;52.142;5.408;2023-05-10T17:52:57;5.45;;;2.70;;
71763;SDS011;59602;52.142;5.408;2023-05-10T17:55:29;5.90;;;2.75;;
71763;SDS011;59602;52.142;5.408;2023-05-10T17:58:00;6.10;;;2.90;;
71763;SDS011;59602;52.142;5.408;2023-05-10T18:00:28;7.32;;;3.17;;
71763;SDS011;59602;52.142;5.408;2023-05-10T18:02:55;6.68;;;3.25;;
71763;SDS011;59602;52.142;5.408;2023-05-10T18:05:22;7.70;;;3.20;;
71763;SDS011;59602;52.142;5.408;2023-05-10T18:07:49;6.85;;;3.13;;
71763;SDS011;59602;52.142;5.408;2023-05-10T18:10:18;5.67;;;2.90;;
71763;SDS011;59602;52.142;5.408;2023-05-10T18:12:46;6.88;;;2.88;;
71763;SDS011;59602;52.142;5.408;2023-05-10T18:15:34;7.15;;;3.47;;
71763;SDS011;59602;52.142;5.408;2023-05-10T18:18:01;10.02;;;3.60;;
71763;SDS011;59602;52.142;5.408;2023-05-10T18:20:30;7.45;;;3.15;;
71763;SDS011;59602;52.142;5.408;2023-05-10T18:22:57;8.17;;;3.73;;
71763;SDS011;59602;52.142;5.408;2023-05-10T18:26:00;7.82;;;3.03;;
71763;SDS011;59602;52.142;5.408;2023-05-10T18:28:24;7.28;;;3.05;;
71763;SDS011;59602;52.142;5.408;2023-05-10T18:30:54;9.15;;;3.85;;
71763;SDS011;59602;52.142;5.408;2023-05-10T18:33:44;7.25;;;3.47;;
71763;SDS011;59602;52.142;5.408;2023-05-10T18:36:34;6.50;;;3.40;;
71763;SDS011;59602;52.142;5.408;2023-05-10T18:39:15;6.68;;;3.35;;
71763;SDS011;59602;52.142;5.408;2023-05-10T18:41:44;8.98;;;3.92;;
71763;SDS011;59602;52.142;5.408;2023-05-10T18:44:11;9.07;;;3.55;;
71763;SDS011;59602;52.142;5.408;2023-05-10T18:46:38;8.32;;;3.72;;
71763;SDS011;59602;52.142;5.408;2023-05-10T18:49:21;9.67;;;3.90;;
71763;SDS011;59602;52.142;5.408;2023-05-10T18:51:50;9.38;;;3.75;;
71763;SDS011;59602;52.142;5.408;2023-05-10T18:54:19;8.05;;;3.78;;
71763;SDS011;59602;52.142;5.408;2023-05-10T18:56:48;9.52;;;4.00;;
71763;SDS011;59602;52.142;5.408;2023-05-10T18:59:18;7.32;;;3.72;;
71763;SDS011;59602;52.142;5.408;2023-05-10T19:01:45;9.00;;;3.93;;
71763;SDS011;59602;52.142;5.408;2023-05-10T19:04:14;8.32;;;3.75;;
71763;SDS011;59602;52.142;5.408;2023-05-10T19:06:41;9.77;;;4.25;;
71763;SDS011;59602;52.142;5.408;2023-05-10T19:09:08;8.43;;;3.90;;
71763;SDS011;59602;52.142;5.408;2023-05-10T19:11:51;9.50;;;3.92;;
71763;SDS011;59602;52.142;5.408;2023-05-10T19:14:19;9.00;;;4.37;;
71763;SDS011;59602;52.142;5.408;2023-05-10T19:16:46;10.32;;;4.50;;
71763;SDS011;59602;52.142;5.408;2023-05-10T19:19:13;11.80;;;4.95;;
71763;SDS011;59602;52.142;5.408;2023-05-10T19:21:40;15.90;;;6.53;;
71763;SDS011;59602;52.142;5.408;2023-05-10T19:24:10;13.30;;;4.72;;
71763;SDS011;59602;52.142;5.408;2023-05-10T19:34:50;16.10;;;6.53;;
71763;SDS011;59602;52.142;5.408;2023-05-10T19:37:54;23.10;;;9.82;;
71763;SDS011;59602;52.142;5.408;2023-05-10T19:40:42;28.77;;;12.00;;
71763;SDS011;59602;52.142;5.408;2023-05-10T19:43:46;21.77;;;9.93;;
71763;SDS011;59602;52.142;5.408;2023-05-10T19:46:14;17.20;;;8.10;;
71763;SDS011;59602;52.142;5.408;2023-05-10T19:48:48;13.75;;;6.35;;
71763;SDS011;59602;52.142;5.408;2023-05-10T19:51:55;14.73;;;5.93;;
71763;SDS011;59602;52.142;5.408;2023-05-10T19:54:42;10.68;;;4.95;;
71763;SDS011;59602;52.142;5.408;2023-05-10T20:00:51;11.75;;;5.57;;
71763;SDS011;59602;52.142;5.408;2023-05-10T20:04:14;11.75;;;5.05;;
71763;SDS011;59602;52.142;5.408;2023-05-10T20:07:15;11.20;;;5.10;;
71763;SDS011;59602;52.142;5.408;2023-05-10T20:13:21;13.20;;;5.80;;
71763;SDS011;59602;52.142;5.408;2023-05-10T20:16:19;11.38;;;5.75;;
71763;SDS011;59602;52.142;5.408;2023-05-10T20:18:51;11.98;;;5.65;;
71763;SDS011;59602;52.142;5.408;2023-05-10T20:21:48;11.10;;;4.90;;
71763;SDS011;59602;52.142;5.408;2023-05-10T20:24:58;14.13;;;6.35;;
71763;SDS011;59602;52.142;5.408;2023-05-10T20:28:11;13.33;;;5.70;;
71763;SDS011;59602;52.142;5.408;2023-05-10T20:31:06;11.63;;;4.32;;
71763;SDS011;59602;52.142;5.408;2023-05-10T20:37:28;10.30;;;4.38;;
71763;SDS011;59602;52.142;5.408;2023-05-10T20:41:18;8.18;;;4.15;;
71763;SDS011;59602;52.142;5.408;2023-05-10T20:51:20;10.77;;;4.22;;
71763;SDS011;59602;52.142;5.408;2023-05-10T20:58:05;9.80;;;4.20;;
71763;SDS011;59602;52.142;5.408;2023-05-10T21:01:24;9.17;;;4.03;;
71763;SDS011;59602;52.142;5.408;2023-05-10T21:04:35;10.50;;;4.82;;
71763;SDS011;59602;52.142;5.408;2023-05-10T21:07:41;12.13;;;4.85;;
71763;SDS011;59602;52.142;5.408;2023-05-10T21:10:27;12.48;;;4.88;;
71763;SDS011;59602;52.142;5.408;2023-05-10T21:13:35;10.77;;;4.55;;
71763;SDS011;59602;52.142;5.408;2023-05-10T21:16:32;11.27;;;4.73;;
71763;SDS011;59602;52.142;5.408;2023-05-10T21:19:03;11.70;;;5.10;;
71763;SDS011;59602;52.142;5.408;2023-05-10T21:21:49;12.85;;;5.40;;
71763;SDS011;59602;52.142;5.408;2023-05-10T21:25:21;12.07;;;5.63;;
71763;SDS011;59602;52.142;5.408;2023-05-10T21:28:16;10.48;;;4.90;;
71763;SDS011;59602;52.142;5.408;2023-05-10T21:30:47;9.77;;;4.27;;
71763;SDS011;59602;52.142;5.408;2023-05-10T21:33:38;11.65;;;4.90;;
71763;SDS011;59602;52.142;5.408;2023-05-10T21:36:23;12.48;;;5.32;;